createdAt,value
2023-04-06T00:00:59.886Z,58.50
2023-04-06T00:03:26.708Z,58.70
2023-04-06T00:05:53.877Z,58.60
2023-04-06T00:08:22.456Z,58.80
2023-04-06T00:10:49.346Z,59.30
2023-04-06T00:13:16.386Z,59.50
2023-04-06T00:15:43.341Z,59.70
2023-04-06T00:18:10.465Z,59.40
2023-04-06T00:20:37.364Z,59.60
2023-04-06T00:23:04.370Z,61.00
2023-04-06T00:25:31.245Z,61.00
2023-04-06T00:27:58.067Z,60.60
2023-04-06T00:30:24.808Z,60.20
2023-04-06T00:32:51.605Z,61.30
2023-04-06T00:35:18.479Z,61.40
2023-04-06T00:37:46.960Z,61.70
2023-04-06T00:40:13.752Z,61.80
2023-04-06T00:42:40.665Z,62.70
2023-04-06T00:45:08.040Z,63.70
2023-04-06T00:47:46.206Z,63.40
2023-04-06T00:50:13.017Z,63.10
2023-04-06T00:52:39.763Z,63.10
2023-04-06T00:55:06.810Z,62.70
2023-04-06T00:57:33.511Z,62.00
2023-04-06T01:00:00.346Z,61.50
2023-04-06T01:02:27.295Z,61.50
2023-04-06T01:04:55.406Z,61.50
2023-04-06T01:07:22.415Z,61.40
2023-04-06T01:09:49.329Z,60.50
2023-04-06T01:12:16.322Z,60.80
2023-04-06T01:14:43.129Z,61.50
2023-04-06T01:17:10.193Z,61.40
2023-04-06T01:19:37.663Z,61.50
2023-04-06T01:22:04.536Z,61.90
2023-04-06T01:24:31.443Z,61.90
2023-04-06T01:26:58.151Z,61.70
2023-04-06T01:29:25.151Z,61.60
2023-04-06T01:31:52.209Z,60.80
2023-04-06T01:34:19.384Z,61.00
2023-04-06T01:36:46.212Z,61.50
2023-04-06T01:39:13.055Z,62.00
2023-04-06T01:41:39.919Z,62.80
2023-04-06T01:44:06.691Z,62.40
2023-04-06T01:46:33.683Z,62.60
2023-04-06T01:49:01.365Z,62.80
2023-04-06T01:51:28.415Z,62.60
2023-04-06T01:53:56.202Z,62.80
2023-04-06T01:56:23.050Z,61.60
2023-04-06T01:58:49.836Z,61.90
2023-04-06T02:01:17.025Z,62.00
2023-04-06T02:03:43.961Z,61.80
2023-04-06T02:06:11.111Z,61.90
2023-04-06T02:08:38.218Z,62.00
2023-04-06T02:11:05.196Z,62.30
2023-04-06T02:13:31.984Z,61.70
2023-04-06T02:15:59.244Z,62.20
2023-04-06T02:18:26.170Z,62.60
2023-04-06T02:20:52.854Z,62.70
2023-04-06T02:23:19.664Z,63.10
2023-04-06T02:25:46.620Z,63.40
2023-04-06T02:28:13.360Z,63.00
2023-04-06T02:30:40.262Z,63.10
2023-04-06T02:33:07.151Z,63.30
2023-04-06T02:35:34.014Z,63.60
2023-04-06T02:38:01.091Z,64.40
2023-04-06T02:40:27.992Z,64.30
2023-04-06T02:42:54.782Z,64.50
2023-04-06T02:45:21.786Z,64.50
2023-04-06T02:47:48.640Z,64.30
2023-04-06T02:50:15.727Z,63.70
2023-04-06T02:52:42.813Z,63.50
2023-04-06T02:55:10.024Z,63.60
2023-04-06T02:57:36.810Z,63.30
2023-04-06T03:00:03.857Z,62.80
2023-04-06T03:02:30.629Z,63.10
2023-04-06T03:04:57.652Z,63.30
2023-04-06T03:07:24.616Z,64.10
2023-04-06T03:09:51.440Z,64.30
2023-04-06T03:12:18.545Z,65.70
2023-04-06T03:14:45.344Z,64.70
2023-04-06T03:17:12.441Z,64.30
2023-04-06T03:19:39.377Z,64.40
2023-04-06T03:22:06.588Z,64.30
2023-04-06T03:24:33.521Z,63.70
2023-04-06T03:27:01.254Z,64.20
2023-04-06T03:29:28.318Z,63.20
2023-04-06T03:31:55.373Z,63.80
2023-04-06T03:34:22.269Z,63.00
2023-04-06T03:36:56.637Z,63.20
2023-04-06T03:39:33.864Z,64.10
2023-04-06T03:42:00.817Z,63.70
2023-04-06T03:44:27.729Z,64.00
2023-04-06T03:46:54.485Z,63.90
2023-04-06T03:49:21.547Z,64.00
2023-04-06T03:51:48.325Z,64.10
2023-04-06T03:54:15.327Z,63.90
2023-04-06T03:56:42.141Z,64.10
2023-04-06T03:59:09.071Z,64.60
2023-04-06T04:01:36.394Z,64.80
2023-04-06T04:04:03.423Z,64.90
2023-04-06T04:06:30.892Z,64.90
2023-04-06T04:08:57.767Z,65.00
2023-04-06T04:11:24.672Z,64.50
2023-04-06T04:13:51.441Z,64.30
2023-04-06T04:16:18.321Z,63.80
2023-04-06T04:18:46.475Z,63.70
2023-04-06T04:21:13.343Z,63.40
2023-04-06T04:23:40.224Z,63.10
2023-04-06T04:26:07.244Z,63.20
2023-04-06T04:28:34.369Z,63.40
2023-04-06T04:31:01.502Z,63.60
2023-04-06T04:33:28.414Z,63.60
2023-04-06T04:35:55.543Z,63.40
2023-04-06T04:38:22.401Z,63.30
2023-04-06T04:40:49.239Z,63.60
2023-04-06T04:43:16.174Z,63.30
2023-04-06T04:45:43.005Z,63.30
2023-04-06T04:48:10.506Z,63.30
2023-04-06T04:50:37.430Z,63.90
2023-04-06T04:53:06.954Z,64.20
2023-04-06T04:55:34.110Z,64.60
2023-04-06T04:58:01.012Z,64.70
2023-04-06T05:00:27.932Z,64.50
2023-04-06T05:02:54.987Z,65.00
2023-04-06T05:05:21.936Z,64.70
2023-04-06T05:07:48.862Z,64.40
2023-04-06T05:10:16.052Z,64.10
2023-04-06T05:12:42.786Z,63.90
2023-04-06T05:15:10.025Z,63.60
2023-04-06T05:17:36.875Z,63.80
2023-04-06T05:20:03.835Z,63.70
2023-04-06T05:22:30.815Z,64.10
2023-04-06T05:24:57.859Z,63.90
2023-04-06T05:27:24.995Z,64.70
2023-04-06T05:29:51.878Z,64.50
2023-04-06T05:32:29.810Z,64.90
2023-04-06T05:35:08.010Z,65.00
2023-04-06T05:37:34.816Z,64.60
2023-04-06T05:40:02.035Z,64.70
2023-04-06T05:42:28.748Z,64.80
2023-04-06T05:44:56.479Z,64.60
2023-04-06T05:47:23.197Z,65.10
2023-04-06T05:49:49.945Z,64.40
2023-04-06T05:52:16.791Z,64.80
2023-04-06T05:54:43.474Z,64.60
2023-04-06T05:57:10.177Z,64.60
2023-04-06T05:59:37.045Z,64.10
2023-04-06T06:02:03.840Z,63.50
2023-04-06T06:04:31.488Z,64.20
2023-04-06T06:06:58.288Z,64.30
2023-04-06T06:09:25.046Z,64.10
2023-04-06T06:11:52.097Z,63.90
2023-04-06T06:14:18.932Z,63.10
2023-04-06T06:16:45.857Z,62.70
2023-04-06T06:19:12.622Z,64.10
2023-04-06T06:21:39.475Z,63.40
2023-04-06T06:24:06.448Z,63.60
2023-04-06T06:26:33.139Z,64.10
2023-04-06T06:28:59.905Z,64.20
2023-04-06T06:31:27.223Z,63.90
2023-04-06T06:33:54.069Z,63.60
2023-04-06T06:36:20.857Z,63.20
2023-04-06T06:38:47.590Z,63.00
2023-04-06T06:41:14.267Z,64.00
2023-04-06T06:43:41.164Z,62.20
2023-04-06T06:46:08.050Z,60.30
2023-04-06T06:48:34.977Z,60.60
2023-04-06T06:51:02.002Z,62.20
2023-04-06T06:53:28.912Z,61.40
2023-04-06T06:55:56.042Z,61.40
2023-04-06T06:58:22.847Z,61.90
2023-04-06T07:00:49.620Z,61.70
2023-04-06T07:03:16.420Z,62.00
2023-04-06T07:05:50.114Z,61.10
2023-04-06T07:08:17.319Z,59.30
2023-04-06T07:10:44.247Z,59.90
2023-04-06T07:13:11.533Z,60.20
2023-04-06T07:15:38.526Z,61.30
2023-04-06T07:18:05.444Z,59.60
2023-04-06T07:20:32.450Z,58.40
2023-04-06T07:22:59.336Z,59.90
2023-04-06T07:25:26.274Z,58.50
2023-04-06T07:27:53.091Z,58.50
2023-04-06T07:30:20.186Z,58.00
2023-04-06T07:32:46.986Z,59.30
2023-04-06T07:35:13.942Z,59.40
2023-04-06T07:37:41.012Z,58.10
2023-04-06T07:40:07.986Z,60.90
2023-04-06T07:42:34.838Z,60.90
2023-04-06T07:45:01.582Z,61.50
2023-04-06T07:47:28.291Z,62.50
2023-04-06T07:49:56.914Z,61.60
2023-04-06T07:52:23.605Z,62.00
2023-04-06T07:54:50.561Z,61.90
2023-04-06T07:57:17.734Z,60.70
2023-04-06T07:59:44.533Z,60.70
2023-04-06T08:02:11.395Z,61.60
2023-04-06T08:04:38.321Z,59.80
2023-04-06T08:07:05.389Z,60.20
2023-04-06T08:09:32.220Z,60.70
2023-04-06T08:11:59.811Z,54.80
2023-04-06T08:14:26.838Z,54.40
2023-04-06T08:16:53.558Z,54.70
2023-04-06T08:19:20.620Z,54.90
2023-04-06T08:21:48.216Z,55.80
2023-04-06T08:24:15.860Z,56.80
2023-04-06T08:26:42.856Z,55.50
2023-04-06T08:29:09.580Z,53.00
2023-04-06T08:31:36.825Z,53.60
2023-04-06T08:34:07.170Z,51.40
2023-04-06T08:36:34.252Z,51.30
2023-04-06T08:39:01.366Z,52.40
2023-04-06T08:41:28.456Z,51.20
2023-04-06T08:43:59.522Z,51.60
2023-04-06T08:46:35.797Z,51.90
2023-04-06T08:49:03.693Z,49.00
2023-04-06T08:51:31.476Z,49.70
2023-04-06T08:53:59.066Z,48.10
2023-04-06T08:56:27.303Z,49.30
2023-04-06T08:58:56.031Z,49.60
2023-04-06T09:01:24.607Z,48.40
2023-04-06T09:03:52.578Z,50.60
2023-04-06T09:06:19.747Z,48.90
2023-04-06T09:08:46.533Z,48.60
2023-04-06T09:11:15.478Z,48.00
2023-04-06T09:13:45.909Z,47.00
2023-04-06T09:16:12.934Z,46.90
2023-04-06T09:18:41.591Z,48.20
2023-04-06T09:21:09.341Z,48.70
2023-04-06T09:23:36.519Z,49.50
2023-04-06T09:26:16.626Z,47.80
2023-04-06T09:28:50.055Z,47.70
2023-04-06T09:31:17.814Z,48.10
2023-04-06T09:33:45.823Z,48.50
2023-04-06T09:36:13.174Z,48.90
2023-04-06T09:38:52.023Z,49.20
2023-04-06T09:41:25.606Z,49.00
2023-04-06T09:44:11.110Z,49.80
2023-04-06T09:46:58.007Z,48.80
2023-04-06T09:49:31.643Z,49.60
2023-04-06T09:52:00.220Z,49.80
2023-04-06T09:54:29.496Z,49.20
2023-04-06T09:57:10.431Z,49.30
2023-04-06T09:59:57.300Z,47.90
2023-04-06T10:02:30.398Z,48.40
2023-04-06T10:04:59.868Z,50.00
2023-04-06T10:07:27.696Z,48.50
2023-04-06T10:09:55.400Z,48.30
2023-04-06T10:12:22.187Z,49.80
2023-04-06T10:14:50.364Z,47.20
2023-04-06T10:17:17.166Z,47.90
2023-04-06T10:19:46.721Z,49.10
2023-04-06T10:22:16.499Z,48.40
2023-04-06T10:24:43.383Z,46.60
2023-04-06T10:27:12.272Z,48.20
2023-04-06T10:29:44.127Z,48.10
2023-04-06T10:32:11.216Z,45.60
2023-04-06T10:34:38.082Z,50.60
2023-04-06T10:37:17.663Z,46.20
2023-04-06T10:39:58.415Z,45.20
2023-04-06T10:42:26.602Z,46.20
2023-04-06T10:44:53.710Z,45.80
2023-04-06T10:47:20.485Z,47.80
2023-04-06T10:49:47.447Z,48.80
2023-04-06T10:52:14.333Z,50.00
2023-04-06T10:54:49.775Z,49.90
2023-04-06T10:57:17.162Z,50.10
2023-04-06T10:59:44.656Z,49.70
2023-04-06T11:02:20.707Z,48.80
2023-04-06T11:04:54.803Z,47.10
2023-04-06T11:07:26.937Z,50.00
2023-04-06T11:10:11.601Z,48.60
2023-04-06T11:12:40.606Z,50.80
2023-04-06T11:15:07.782Z,50.90
2023-04-06T11:17:35.641Z,50.70
2023-04-06T11:20:03.533Z,48.90
2023-04-06T11:22:30.747Z,47.60
2023-04-06T11:25:07.901Z,47.80
2023-04-06T11:27:35.108Z,48.30
2023-04-06T11:30:02.524Z,49.10
2023-04-06T11:32:29.480Z,48.50
2023-04-06T11:34:58.658Z,49.60
2023-04-06T11:37:28.030Z,50.70
2023-04-06T11:39:56.432Z,51.00
2023-04-06T11:42:23.919Z,51.70
2023-04-06T11:44:52.140Z,51.10
2023-04-06T11:47:19.545Z,52.00
2023-04-06T11:49:46.393Z,53.10
2023-04-06T11:52:24.389Z,50.80
2023-04-06T11:54:52.403Z,52.00
2023-04-06T11:57:19.832Z,53.20
2023-04-06T11:59:46.596Z,54.10
2023-04-06T12:02:13.516Z,53.50
2023-04-06T12:04:41.663Z,54.10
2023-04-06T12:07:08.632Z,53.20
2023-04-06T12:09:35.737Z,52.60
2023-04-06T12:12:02.691Z,52.60
2023-04-06T12:14:29.704Z,51.90
2023-04-06T12:16:56.425Z,51.60
2023-04-06T12:19:26.605Z,51.70
2023-04-06T12:21:54.344Z,51.10
2023-04-06T12:24:21.315Z,50.30
2023-04-06T12:26:48.365Z,50.30
2023-04-06T12:29:15.880Z,50.60
2023-04-06T12:31:44.098Z,50.00
2023-04-06T12:34:11.132Z,50.60
2023-04-06T12:36:38.371Z,51.90
2023-04-06T12:39:05.421Z,53.30
2023-04-06T12:41:32.386Z,53.20
2023-04-06T12:44:00.419Z,52.50
2023-04-06T12:46:27.960Z,53.70
2023-04-06T12:48:54.965Z,51.80
2023-04-06T12:51:21.812Z,51.70
2023-04-06T12:53:48.844Z,51.20
2023-04-06T12:56:16.738Z,51.60
2023-04-06T12:58:43.689Z,52.60
2023-04-06T13:01:12.601Z,51.40
2023-04-06T13:03:40.116Z,48.80
2023-04-06T13:06:07.723Z,50.90
2023-04-06T13:08:34.584Z,51.60
2023-04-06T13:11:01.658Z,53.60
2023-04-06T13:13:29.718Z,54.00
2023-04-06T13:16:00.298Z,51.80
2023-04-06T13:18:27.307Z,53.20
2023-04-06T13:20:54.089Z,53.40
2023-04-06T13:23:20.814Z,54.20
2023-04-06T13:25:47.551Z,54.70
2023-04-06T13:28:14.806Z,54.40
2023-04-06T13:30:41.528Z,53.50
2023-04-06T13:33:08.403Z,52.30
2023-04-06T13:35:36.796Z,51.30
2023-04-06T13:38:03.639Z,50.90
2023-04-06T13:40:30.417Z,50.60
2023-04-06T13:42:57.338Z,50.20
2023-04-06T13:45:24.159Z,49.80
2023-04-06T13:47:51.599Z,50.40
2023-04-06T13:50:18.620Z,52.50
2023-04-06T13:52:45.707Z,51.10
2023-04-06T13:55:12.486Z,49.20
2023-04-06T13:57:39.435Z,49.20
2023-04-06T14:00:08.281Z,49.20
2023-04-06T14:02:35.208Z,49.30
2023-04-06T14:05:02.137Z,49.70
2023-04-06T14:07:28.995Z,51.30
2023-04-06T14:09:56.256Z,51.00
2023-04-06T14:12:23.271Z,49.40
2023-04-06T14:14:52.445Z,49.80
2023-04-06T14:17:19.235Z,51.30
2023-04-06T14:19:45.997Z,50.50
2023-04-06T14:22:12.669Z,50.20
2023-04-06T14:24:39.374Z,50.70
2023-04-06T14:27:06.182Z,50.70
2023-04-06T14:29:32.867Z,51.20
2023-04-06T14:32:01.157Z,51.20
2023-04-06T14:34:28.282Z,51.00
2023-04-06T14:36:55.454Z,51.70
2023-04-06T14:39:22.571Z,50.70
2023-04-06T14:41:50.572Z,50.30
2023-04-06T14:44:18.109Z,50.10
2023-04-06T14:46:44.989Z,50.30
2023-04-06T14:49:12.203Z,49.90
2023-04-06T14:51:39.159Z,50.10
2023-04-06T14:54:05.991Z,51.30
2023-04-06T14:56:32.901Z,51.40
2023-04-06T14:59:00.425Z,52.20
2023-04-06T15:01:27.915Z,52.80
2023-04-06T15:03:54.704Z,53.10
2023-04-06T15:06:21.899Z,53.30
2023-04-06T15:08:49.267Z,53.70
2023-04-06T15:11:16.311Z,53.50
2023-04-06T15:13:43.443Z,53.30
2023-04-06T15:16:11.096Z,52.30
2023-04-06T15:18:37.955Z,52.80
2023-04-06T15:21:04.833Z,53.90
2023-04-06T15:23:31.680Z,54.30
2023-04-06T15:25:58.899Z,53.70
2023-04-06T15:28:25.897Z,53.10
2023-04-06T15:30:52.750Z,52.80
2023-04-06T15:33:21.341Z,52.30
2023-04-06T15:35:48.408Z,52.50
2023-04-06T15:38:15.834Z,50.60
2023-04-06T15:40:46.865Z,52.20
2023-04-06T15:43:13.927Z,53.10
2023-04-06T15:45:41.809Z,53.50
2023-04-06T15:48:09.216Z,54.20
2023-04-06T15:50:36.640Z,56.50
2023-04-06T15:53:03.410Z,56.70
2023-04-06T15:55:30.346Z,56.50
2023-04-06T15:57:57.044Z,56.70
2023-04-06T16:00:23.871Z,56.80
2023-04-06T16:02:50.909Z,57.00
2023-04-06T16:05:17.808Z,57.40
2023-04-06T16:07:44.534Z,57.70
2023-04-06T16:10:11.915Z,57.80
2023-04-06T16:12:40.117Z,58.00
2023-04-06T16:15:07.152Z,58.10
2023-04-06T16:17:34.125Z,58.20
2023-04-06T16:20:00.895Z,58.50
2023-04-06T16:22:28.827Z,59.00
2023-04-06T16:24:55.746Z,58.80
2023-04-06T16:27:22.445Z,59.20
2023-04-06T16:29:49.169Z,58.90
2023-04-06T16:32:16.073Z,59.10
2023-04-06T16:34:42.814Z,58.90
2023-04-06T16:37:09.546Z,59.20
2023-04-06T16:39:36.638Z,59.20
2023-04-06T16:42:03.325Z,59.50
2023-04-06T16:44:30.066Z,59.50
2023-04-06T16:46:56.815Z,59.50
2023-04-06T16:49:24.208Z,59.80
2023-04-06T16:51:51.909Z,59.70
2023-04-06T16:54:18.765Z,59.90
2023-04-06T16:56:45.500Z,59.90
2023-04-06T16:59:12.365Z,60.00
2023-04-06T17:01:39.456Z,60.00
2023-04-06T17:04:06.398Z,60.30
2023-04-06T17:06:33.211Z,60.90
2023-04-06T17:09:00.277Z,60.40
2023-04-06T17:11:32.934Z,60.40
2023-04-06T17:14:07.898Z,60.80
2023-04-06T17:16:34.802Z,60.80
2023-04-06T17:19:01.679Z,61.30
2023-04-06T17:21:28.473Z,61.00
2023-04-06T17:23:55.255Z,61.20
2023-04-06T17:26:22.280Z,61.00
2023-04-06T17:28:49.135Z,62.50
2023-04-06T17:31:16.132Z,61.60
2023-04-06T17:33:42.977Z,61.60
2023-04-06T17:36:11.112Z,61.80
2023-04-06T17:38:39.558Z,62.00
2023-04-06T17:41:07.637Z,62.60
2023-04-06T17:43:34.480Z,62.40
2023-04-06T17:46:01.254Z,61.70
2023-04-06T17:48:29.668Z,62.40
2023-04-06T17:50:56.432Z,62.10
2023-04-06T17:53:23.251Z,62.70
2023-04-06T17:55:49.945Z,62.50
2023-04-06T17:58:16.973Z,62.70
2023-04-06T18:00:43.726Z,63.10
2023-04-06T18:03:10.468Z,63.20
2023-04-06T18:05:39.740Z,63.20
2023-04-06T18:08:06.495Z,64.20
2023-04-06T18:10:36.956Z,63.60
2023-04-06T18:13:04.270Z,64.30
2023-04-06T18:15:31.463Z,63.50
2023-04-06T18:18:00.534Z,64.00
2023-04-06T18:20:28.340Z,61.10
2023-04-06T18:22:56.294Z,63.20
2023-04-06T18:25:25.788Z,62.80
2023-04-06T18:27:52.611Z,62.40
2023-04-06T18:30:20.028Z,63.40
2023-04-06T18:32:48.805Z,63.00
2023-04-06T18:35:16.169Z,63.70
2023-04-06T18:37:42.989Z,63.50
2023-04-06T18:40:29.909Z,63.60
2023-04-06T18:42:56.740Z,63.40
2023-04-06T18:45:24.207Z,63.30
2023-04-06T18:47:52.446Z,63.20
2023-04-06T18:50:19.219Z,61.80
2023-04-06T18:52:46.450Z,61.80
2023-04-06T18:55:13.360Z,62.10
2023-04-06T18:57:43.935Z,61.20
2023-04-06T19:00:11.301Z,61.20
2023-04-06T19:02:39.972Z,61.20
2023-04-06T19:05:07.543Z,62.40
2023-04-06T19:07:34.468Z,62.00
2023-04-06T19:10:01.972Z,62.40
2023-04-06T19:12:28.645Z,62.10
2023-04-06T19:14:55.686Z,62.90
2023-04-06T19:17:23.585Z,62.20
2023-04-06T19:19:52.725Z,60.90
2023-04-06T19:22:21.522Z,60.40
2023-04-06T19:24:49.301Z,61.20
2023-04-06T19:27:16.812Z,61.20
2023-04-06T19:29:46.546Z,62.60
2023-04-06T19:32:14.349Z,62.50
2023-04-06T19:34:43.520Z,62.40
2023-04-06T19:37:10.773Z,62.30
2023-04-06T19:39:43.353Z,62.50
2023-04-06T19:42:14.926Z,62.50
2023-04-06T19:44:42.567Z,61.60
2023-04-06T19:47:12.109Z,62.10
2023-04-06T19:49:41.121Z,63.10
2023-04-06T19:52:10.021Z,62.10
2023-04-06T19:54:38.171Z,62.60
2023-04-06T19:57:05.850Z,64.60
2023-04-06T19:59:35.000Z,62.70
2023-04-06T20:02:03.521Z,62.50
2023-04-06T20:04:32.046Z,63.30
2023-04-06T20:07:03.261Z,64.30
2023-04-06T20:09:31.083Z,64.10
2023-04-06T20:11:58.237Z,64.30
2023-04-06T20:14:26.629Z,64.10
2023-04-06T20:17:00.389Z,64.60
2023-04-06T20:19:29.297Z,64.80
2023-04-06T20:21:56.818Z,65.00
2023-04-06T20:24:24.705Z,63.80
2023-04-06T20:26:53.456Z,63.70
2023-04-06T20:29:21.496Z,65.70
2023-04-06T20:31:50.247Z,66.80
2023-04-06T20:34:18.400Z,68.10
2023-04-06T20:36:45.536Z,65.50
2023-04-06T20:39:13.896Z,65.10
2023-04-06T20:41:48.957Z,65.20
2023-04-06T20:44:16.431Z,67.90
2023-04-06T20:46:45.718Z,67.40
2023-04-06T20:49:13.496Z,67.60
2023-04-06T20:51:50.798Z,68.10
2023-04-06T20:54:19.823Z,67.90
2023-04-06T20:56:46.962Z,66.80
2023-04-06T20:59:16.783Z,67.00
2023-04-06T21:01:44.379Z,66.60
2023-04-06T21:04:11.720Z,66.20
2023-04-06T21:06:38.547Z,67.30
2023-04-06T21:09:05.877Z,66.40
2023-04-06T21:11:32.695Z,66.20
2023-04-06T21:13:59.479Z,66.00
2023-04-06T21:16:27.367Z,65.70
2023-04-06T21:18:54.078Z,66.70
2023-04-06T21:21:20.792Z,66.40
2023-04-06T21:23:48.524Z,66.20
2023-04-06T21:26:15.506Z,66.70
2023-04-06T21:28:43.531Z,66.70
2023-04-06T21:31:10.529Z,67.30
2023-04-06T21:33:37.427Z,68.30
2023-04-06T21:36:07.801Z,68.90
2023-04-06T21:38:37.396Z,68.60
2023-04-06T21:41:04.126Z,69.80
2023-04-06T21:43:30.923Z,68.30
2023-04-06T21:45:57.748Z,67.80
2023-04-06T21:48:24.455Z,69.20
2023-04-06T21:50:51.265Z,70.00
2023-04-06T21:53:18.052Z,69.00
2023-04-06T21:55:45.266Z,68.70
2023-04-06T21:58:12.344Z,69.50
2023-04-06T22:00:39.275Z,69.50
2023-04-06T22:03:06.281Z,69.20
2023-04-06T22:05:33.646Z,69.10
2023-04-06T22:08:03.413Z,69.70
2023-04-06T22:10:30.389Z,69.40
2023-04-06T22:12:57.269Z,69.50
2023-04-06T22:15:24.025Z,68.20
2023-04-06T22:17:50.870Z,68.30
2023-04-06T22:20:17.646Z,69.10
2023-04-06T22:22:44.434Z,69.60
2023-04-06T22:25:11.293Z,70.40
2023-04-06T22:27:38.156Z,69.70
2023-04-06T22:30:05.371Z,69.40
2023-04-06T22:32:32.159Z,68.30
2023-04-06T22:34:58.892Z,69.00
2023-04-06T22:37:25.889Z,69.80
2023-04-06T22:39:52.792Z,69.30
2023-04-06T22:42:19.684Z,67.90
2023-04-06T22:44:46.498Z,68.40
2023-04-06T22:47:14.450Z,68.90
2023-04-06T22:49:41.327Z,70.30
2023-04-06T22:52:08.225Z,69.80
2023-04-06T22:54:34.982Z,69.70
2023-04-06T22:57:02.949Z,69.50
2023-04-06T22:59:29.928Z,68.90
2023-04-06T23:01:57.975Z,69.50
2023-04-06T23:04:24.934Z,69.30
2023-04-06T23:06:52.292Z,69.50
2023-04-06T23:09:18.965Z,68.70
2023-04-06T23:11:45.980Z,69.00
2023-04-06T23:14:12.772Z,69.90
2023-04-06T23:16:39.477Z,69.80
2023-04-06T23:19:06.372Z,71.20
2023-04-06T23:21:33.472Z,71.80
2023-04-06T23:24:00.849Z,70.50
2023-04-06T23:26:27.782Z,72.00
2023-04-06T23:28:55.263Z,71.70
2023-04-06T23:31:21.980Z,70.80
2023-04-06T23:33:48.842Z,71.00
2023-04-06T23:36:15.838Z,70.30
2023-04-06T23:38:42.560Z,70.10
2023-04-06T23:41:09.343Z,68.70
2023-04-06T23:43:36.397Z,70.40
2023-04-06T23:46:03.322Z,70.20
2023-04-06T23:48:30.053Z,69.90
2023-04-06T23:50:56.836Z,68.90
2023-04-06T23:53:23.733Z,70.30
2023-04-06T23:55:50.823Z,70.80
2023-04-06T23:58:17.663Z,71.50
